sensor_id;sensor_type;location;lat;lon;timestamp;temperature;humidity
12907;DHT22;6521;50.498;8.474;2023-08-06T00:01:32;15.65;83.50
12907;DHT22;6521;50.498;8.474;2023-08-06T00:04:03;15.65;83.54
12907;DHT22;6521;50.498;8.474;2023-08-06T00:06:33;15.65;83.63
12907;DHT22;6521;50.498;8.474;2023-08-06T00:09:04;15.66;83.72
12907;DHT22;6521;50.498;8.474;2023-08-06T00:11:35;15.66;83.57
12907;DHT22;6521;50.498;8.474;2023-08-06T00:14:05;15.63;83.57
12907;DHT22;6521;50.498;8.474;2023-08-06T00:16:36;15.65;83.70
12907;DHT22;6521;50.498;8.474;2023-08-06T00:19:09;15.63;83.82
12907;DHT22;6521;50.498;8.474;2023-08-06T00:21:40;15.62;83.91
12907;DHT22;6521;50.498;8.474;2023-08-06T00:24:10;15.60;84.02
12907;DHT22;6521;50.498;8.474;2023-08-06T00:26:41;15.57;84.05
12907;DHT22;6521;50.498;8.474;2023-08-06T00:29:12;15.55;84.16
12907;DHT22;6521;50.498;8.474;2023-08-06T00:31:43;15.50;84.25
12907;DHT22;6521;50.498;8.474;2023-08-06T00:34:13;15.48;84.33
12907;DHT22;6521;50.498;8.474;2023-08-06T00:36:44;15.42;84.49
12907;DHT22;6521;50.498;8.474;2023-08-06T00:39:15;15.40;84.61
12907;DHT22;6521;50.498;8.474;2023-08-06T00:41:45;15.39;84.50
12907;DHT22;6521;50.498;8.474;2023-08-06T00:44:16;15.39;84.53
12907;DHT22;6521;50.498;8.474;2023-08-06T00:46:47;15.38;84.36
12907;DHT22;6521;50.498;8.474;2023-08-06T00:49:18;15.36;84.35
12907;DHT22;6521;50.498;8.474;2023-08-06T00:51:49;15.38;84.20
12907;DHT22;6521;50.498;8.474;2023-08-06T00:54:20;15.39;83.99
12907;DHT22;6521;50.498;8.474;2023-08-06T00:56:51;15.43;83.47
12907;DHT22;6521;50.498;8.474;2023-08-06T00:59:22;15.40;83.53
12907;DHT22;6521;50.498;8.474;2023-08-06T01:01:53;15.39;83.30
12907;DHT22;6521;50.498;8.474;2023-08-06T01:04:25;15.38;83.37
12907;DHT22;6521;50.498;8.474;2023-08-06T01:08:29;15.40;83.03
12907;DHT22;6521;50.498;8.474;2023-08-06T01:13:31;15.40;82.64
12907;DHT22;6521;50.498;8.474;2023-08-06T01:16:03;15.42;82.35
12907;DHT22;6521;50.498;8.474;2023-08-06T01:18:36;15.40;82.38
12907;DHT22;6521;50.498;8.474;2023-08-06T01:21:09;15.43;82.11
12907;DHT22;6521;50.498;8.474;2023-08-06T01:23:41;15.42;82.14
12907;DHT22;6521;50.498;8.474;2023-08-06T01:26:24;15.40;82.22
12907;DHT22;6521;50.498;8.474;2023-08-06T01:28:59;15.36;82.50
12907;DHT22;6521;50.498;8.474;2023-08-06T01:31:37;15.35;82.68
12907;DHT22;6521;50.498;8.474;2023-08-06T01:34:29;15.36;82.72
12907;DHT22;6521;50.498;8.474;2023-08-06T01:37:01;15.32;83.16
12907;DHT22;6521;50.498;8.474;2023-08-06T01:39:33;15.35;83.56
12907;DHT22;6521;50.498;8.474;2023-08-06T01:42:04;15.34;83.63
12907;DHT22;6521;50.498;8.474;2023-08-06T01:44:34;15.32;83.91
12907;DHT22;6521;50.498;8.474;2023-08-06T01:47:05;15.32;84.02
12907;DHT22;6521;50.498;8.474;2023-08-06T01:49:37;15.32;83.95
12907;DHT22;6521;50.498;8.474;2023-08-06T01:52:09;15.31;83.77
12907;DHT22;6521;50.498;8.474;2023-08-06T01:54:40;15.34;83.62
12907;DHT22;6521;50.498;8.474;2023-08-06T01:57:12;15.34;83.39
12907;DHT22;6521;50.498;8.474;2023-08-06T01:59:43;15.31;83.48
12907;DHT22;6521;50.498;8.474;2023-08-06T02:02:14;15.31;83.68
12907;DHT22;6521;50.498;8.474;2023-08-06T02:04:45;15.29;83.79
12907;DHT22;6521;50.498;8.474;2023-08-06T02:07:17;15.29;83.83
12907;DHT22;6521;50.498;8.474;2023-08-06T02:09:47;15.27;84.06
12907;DHT22;6521;50.498;8.474;2023-08-06T02:12:18;15.25;84.04
12907;DHT22;6521;50.498;8.474;2023-08-06T02:14:49;15.24;84.22
12907;DHT22;6521;50.498;8.474;2023-08-06T02:17:21;15.24;84.39
12907;DHT22;6521;50.498;8.474;2023-08-06T02:19:51;15.22;84.71
12907;DHT22;6521;50.498;8.474;2023-08-06T02:22:22;15.18;84.88
12907;DHT22;6521;50.498;8.474;2023-08-06T02:24:53;15.17;85.26
12907;DHT22;6521;50.498;8.474;2023-08-06T02:27:25;15.15;85.35
12907;DHT22;6521;50.498;8.474;2023-08-06T02:29:56;15.14;85.53
12907;DHT22;6521;50.498;8.474;2023-08-06T02:32:27;15.18;85.40
12907;DHT22;6521;50.498;8.474;2023-08-06T02:34:59;15.15;85.60
12907;DHT22;6521;50.498;8.474;2023-08-06T02:37:33;15.18;85.72
12907;DHT22;6521;50.498;8.474;2023-08-06T02:40:05;15.12;86.12
12907;DHT22;6521;50.498;8.474;2023-08-06T02:42:36;15.09;86.44
12907;DHT22;6521;50.498;8.474;2023-08-06T02:45:07;15.14;86.46
12907;DHT22;6521;50.498;8.474;2023-08-06T02:47:39;15.11;86.75
12907;DHT22;6521;50.498;8.474;2023-08-06T02:50:09;15.11;86.90
12907;DHT22;6521;50.498;8.474;2023-08-06T02:52:41;15.08;86.87
12907;DHT22;6521;50.498;8.474;2023-08-06T02:55:13;15.08;86.85
12907;DHT22;6521;50.498;8.474;2023-08-06T02:57:47;15.09;86.72
12907;DHT22;6521;50.498;8.474;2023-08-06T03:00:18;15.07;86.92
12907;DHT22;6521;50.498;8.474;2023-08-06T03:02:49;15.05;86.99
12907;DHT22;6521;50.498;8.474;2023-08-06T03:05:27;15.02;87.13
12907;DHT22;6521;50.498;8.474;2023-08-06T03:07:58;15.01;87.13
12907;DHT22;6521;50.498;8.474;2023-08-06T03:10:32;14.99;87.25
12907;DHT22;6521;50.498;8.474;2023-08-06T03:13:06;15.01;87.40
12907;DHT22;6521;50.498;8.474;2023-08-06T03:15:37;14.97;87.48
12907;DHT22;6521;50.498;8.474;2023-08-06T03:18:10;14.97;87.67
12907;DHT22;6521;50.498;8.474;2023-08-06T03:20:40;14.94;87.93
12907;DHT22;6521;50.498;8.474;2023-08-06T03:23:11;14.90;87.98
12907;DHT22;6521;50.498;8.474;2023-08-06T03:25:42;14.88;88.02
12907;DHT22;6521;50.498;8.474;2023-08-06T03:28:13;14.87;88.01
12907;DHT22;6521;50.498;8.474;2023-08-06T03:30:46;14.87;88.02
12907;DHT22;6521;50.498;8.474;2023-08-06T03:33:18;14.87;88.10
12907;DHT22;6521;50.498;8.474;2023-08-06T03:35:50;14.85;88.13
12907;DHT22;6521;50.498;8.474;2023-08-06T03:38:21;14.88;88.28
12907;DHT22;6521;50.498;8.474;2023-08-06T03:40:53;14.87;88.36
12907;DHT22;6521;50.498;8.474;2023-08-06T03:43:24;14.87;88.51
12907;DHT22;6521;50.498;8.474;2023-08-06T03:45:55;14.84;88.75
12907;DHT22;6521;50.498;8.474;2023-08-06T03:48:29;14.84;88.68
12907;DHT22;6521;50.498;8.474;2023-08-06T03:50:59;14.80;88.79
12907;DHT22;6521;50.498;8.474;2023-08-06T03:53:32;14.76;88.90
12907;DHT22;6521;50.498;8.474;2023-08-06T03:56:03;14.78;88.78
12907;DHT22;6521;50.498;8.474;2023-08-06T03:58:35;14.76;88.82
12907;DHT22;6521;50.498;8.474;2023-08-06T04:01:06;14.73;88.73
12907;DHT22;6521;50.498;8.474;2023-08-06T04:03:46;14.74;88.67
12907;DHT22;6521;50.498;8.474;2023-08-06T04:06:24;14.69;88.62
12907;DHT22;6521;50.498;8.474;2023-08-06T04:08:57;14.64;88.42
12907;DHT22;6521;50.498;8.474;2023-08-06T04:11:27;14.57;88.59
12907;DHT22;6521;50.498;8.474;2023-08-06T04:13:58;14.55;88.40
12907;DHT22;6521;50.498;8.474;2023-08-06T04:16:29;14.56;88.02
12907;DHT22;6521;50.498;8.474;2023-08-06T04:19:00;14.59;87.85
12907;DHT22;6521;50.498;8.474;2023-08-06T04:21:30;14.59;87.64
12907;DHT22;6521;50.498;8.474;2023-08-06T04:24:01;14.57;87.53
12907;DHT22;6521;50.498;8.474;2023-08-06T04:26:32;14.50;87.54
12907;DHT22;6521;50.498;8.474;2023-08-06T04:29:04;14.49;87.70
12907;DHT22;6521;50.498;8.474;2023-08-06T04:31:35;14.44;87.77
12907;DHT22;6521;50.498;8.474;2023-08-06T04:34:06;14.47;87.78
12907;DHT22;6521;50.498;8.474;2023-08-06T04:36:38;14.46;87.95
12907;DHT22;6521;50.498;8.474;2023-08-06T04:39:12;14.47;87.97
12907;DHT22;6521;50.498;8.474;2023-08-06T04:41:43;14.53;87.99
12907;DHT22;6521;50.498;8.474;2023-08-06T04:44:14;14.57;87.93
12907;DHT22;6521;50.498;8.474;2023-08-06T04:46:45;14.61;87.79
12907;DHT22;6521;50.498;8.474;2023-08-06T04:49:17;14.63;87.74
12907;DHT22;6521;50.498;8.474;2023-08-06T04:51:48;14.66;87.67
12907;DHT22;6521;50.498;8.474;2023-08-06T04:54:19;14.71;87.61
12907;DHT22;6521;50.498;8.474;2023-08-06T04:56:57;14.77;87.40
12907;DHT22;6521;50.498;8.474;2023-08-06T04:59:29;14.80;87.32
12907;DHT22;6521;50.498;8.474;2023-08-06T05:01:59;14.83;87.12
12907;DHT22;6521;50.498;8.474;2023-08-06T05:04:30;14.84;87.06
12907;DHT22;6521;50.498;8.474;2023-08-06T05:07:01;14.83;87.01
12907;DHT22;6521;50.498;8.474;2023-08-06T05:09:32;14.90;86.81
12907;DHT22;6521;50.498;8.474;2023-08-06T05:12:04;14.91;86.64
12907;DHT22;6521;50.498;8.474;2023-08-06T05:14:35;14.90;86.52
12907;DHT22;6521;50.498;8.474;2023-08-06T05:17:06;14.98;86.38
12907;DHT22;6521;50.498;8.474;2023-08-06T05:19:36;14.99;86.28
12907;DHT22;6521;50.498;8.474;2023-08-06T05:22:07;15.01;85.74
12907;DHT22;6521;50.498;8.474;2023-08-06T05:24:38;15.04;86.11
12907;DHT22;6521;50.498;8.474;2023-08-06T05:27:10;15.17;86.06
12907;DHT22;6521;50.498;8.474;2023-08-06T05:29:40;15.21;86.18
12907;DHT22;6521;50.498;8.474;2023-08-06T05:32:11;15.34;86.18
12907;DHT22;6521;50.498;8.474;2023-08-06T05:34:42;15.40;85.10
12907;DHT22;6521;50.498;8.474;2023-08-06T05:37:13;15.52;84.79
12907;DHT22;6521;50.498;8.474;2023-08-06T05:39:43;15.56;84.31
12907;DHT22;6521;50.498;8.474;2023-08-06T05:42:17;15.56;84.33
12907;DHT22;6521;50.498;8.474;2023-08-06T05:44:47;15.60;84.42
12907;DHT22;6521;50.498;8.474;2023-08-06T05:47:18;15.65;83.87
12907;DHT22;6521;50.498;8.474;2023-08-06T05:49:50;15.56;84.12
12907;DHT22;6521;50.498;8.474;2023-08-06T05:52:21;15.52;84.42
12907;DHT22;6521;50.498;8.474;2023-08-06T05:54:51;15.50;85.06
12907;DHT22;6521;50.498;8.474;2023-08-06T05:57:22;15.53;85.12
12907;DHT22;6521;50.498;8.474;2023-08-06T05:59:53;15.40;85.85
12907;DHT22;6521;50.498;8.474;2023-08-06T06:02:24;15.40;85.86
12907;DHT22;6521;50.498;8.474;2023-08-06T06:04:54;15.40;85.98
12907;DHT22;6521;50.498;8.474;2023-08-06T06:07:25;15.35;85.92
12907;DHT22;6521;50.498;8.474;2023-08-06T06:09:56;15.31;86.32
12907;DHT22;6521;50.498;8.474;2023-08-06T06:12:27;15.27;86.55
12907;DHT22;6521;50.498;8.474;2023-08-06T06:14:58;15.28;86.38
12907;DHT22;6521;50.498;8.474;2023-08-06T06:17:29;15.22;86.57
12907;DHT22;6521;50.498;8.474;2023-08-06T06:19:59;15.22;86.86
12907;DHT22;6521;50.498;8.474;2023-08-06T06:22:30;15.25;87.18
12907;DHT22;6521;50.498;8.474;2023-08-06T06:25:01;15.21;86.95
12907;DHT22;6521;50.498;8.474;2023-08-06T06:27:31;15.28;87.14
12907;DHT22;6521;50.498;8.474;2023-08-06T06:30:10;15.39;87.44
12907;DHT22;6521;50.498;8.474;2023-08-06T06:32:42;15.46;87.44
12907;DHT22;6521;50.498;8.474;2023-08-06T06:35:20;15.35;87.17
12907;DHT22;6521;50.498;8.474;2023-08-06T06:37:51;15.35;87.47
12907;DHT22;6521;50.498;8.474;2023-08-06T06:40:21;15.40;87.43
12907;DHT22;6521;50.498;8.474;2023-08-06T06:42:52;15.43;87.32
12907;DHT22;6521;50.498;8.474;2023-08-06T06:45:24;15.36;87.39
12907;DHT22;6521;50.498;8.474;2023-08-06T06:47:55;15.35;87.59
12907;DHT22;6521;50.498;8.474;2023-08-06T06:50:27;15.35;87.71
12907;DHT22;6521;50.498;8.474;2023-08-06T06:52:58;15.34;87.93
12907;DHT22;6521;50.498;8.474;2023-08-06T06:55:31;15.28;87.97
12907;DHT22;6521;50.498;8.474;2023-08-06T06:58:02;15.28;88.80
12907;DHT22;6521;50.498;8.474;2023-08-06T07:00:37;15.35;88.71
12907;DHT22;6521;50.498;8.474;2023-08-06T07:03:10;15.40;88.66
12907;DHT22;6521;50.498;8.474;2023-08-06T07:05:44;15.39;88.72
12907;DHT22;6521;50.498;8.474;2023-08-06T07:08:14;15.39;88.87
12907;DHT22;6521;50.498;8.474;2023-08-06T07:10:45;15.39;89.26
12907;DHT22;6521;50.498;8.474;2023-08-06T07:13:19;15.46;89.24
12907;DHT22;6521;50.498;8.474;2023-08-06T07:15:51;15.43;88.74
12907;DHT22;6521;50.498;8.474;2023-08-06T07:18:22;15.19;88.59
12907;DHT22;6521;50.498;8.474;2023-08-06T07:20:54;15.09;88.84
12907;DHT22;6521;50.498;8.474;2023-08-06T07:23:26;15.07;89.23
12907;DHT22;6521;50.498;8.474;2023-08-06T07:25:56;15.07;89.73
12907;DHT22;6521;50.498;8.474;2023-08-06T07:28:29;15.08;90.00
12907;DHT22;6521;50.498;8.474;2023-08-06T07:30:59;15.12;90.09
12907;DHT22;6521;50.498;8.474;2023-08-06T07:33:32;15.24;90.29
12907;DHT22;6521;50.498;8.474;2023-08-06T07:36:12;15.43;90.05
12907;DHT22;6521;50.498;8.474;2023-08-06T07:38:44;15.52;90.01
12907;DHT22;6521;50.498;8.474;2023-08-06T07:41:15;15.55;89.72
12907;DHT22;6521;50.498;8.474;2023-08-06T07:43:49;15.45;88.90
12907;DHT22;6521;50.498;8.474;2023-08-06T07:46:23;15.42;88.67
12907;DHT22;6521;50.498;8.474;2023-08-06T07:48:55;15.34;88.88
12907;DHT22;6521;50.498;8.474;2023-08-06T07:51:27;15.36;88.85
12907;DHT22;6521;50.498;8.474;2023-08-06T07:53:59;15.38;89.38
12907;DHT22;6521;50.498;8.474;2023-08-06T07:56:30;15.40;89.31
12907;DHT22;6521;50.498;8.474;2023-08-06T07:59:01;15.63;89.54
12907;DHT22;6521;50.498;8.474;2023-08-06T08:01:32;15.71;89.90
12907;DHT22;6521;50.498;8.474;2023-08-06T08:04:02;15.86;89.38
12907;DHT22;6521;50.498;8.474;2023-08-06T08:06:43;15.90;88.63
12907;DHT22;6521;50.498;8.474;2023-08-06T08:09:13;15.98;88.74
12907;DHT22;6521;50.498;8.474;2023-08-06T08:11:44;16.04;88.22
12907;DHT22;6521;50.498;8.474;2023-08-06T08:14:15;16.03;87.58
12907;DHT22;6521;50.498;8.474;2023-08-06T08:16:46;15.98;87.12
12907;DHT22;6521;50.498;8.474;2023-08-06T08:19:16;15.90;86.75
12907;DHT22;6521;50.498;8.474;2023-08-06T08:21:49;16.03;87.81
12907;DHT22;6521;50.498;8.474;2023-08-06T08:24:21;16.17;87.49
12907;DHT22;6521;50.498;8.474;2023-08-06T08:26:54;16.29;87.41
12907;DHT22;6521;50.498;8.474;2023-08-06T08:29:26;16.49;86.79
12907;DHT22;6521;50.498;8.474;2023-08-06T08:31:56;16.66;85.68
12907;DHT22;6521;50.498;8.474;2023-08-06T08:34:29;16.64;85.70
12907;DHT22;6521;50.498;8.474;2023-08-06T08:37:00;16.66;85.33
12907;DHT22;6521;50.498;8.474;2023-08-06T08:39:33;16.68;85.08
12907;DHT22;6521;50.498;8.474;2023-08-06T08:42:05;16.66;84.61
12907;DHT22;6521;50.498;8.474;2023-08-06T08:44:38;16.71;85.08
12907;DHT22;6521;50.498;8.474;2023-08-06T08:47:13;16.72;84.49
12907;DHT22;6521;50.498;8.474;2023-08-06T08:49:44;16.80;85.31
12907;DHT22;6521;50.498;8.474;2023-08-06T08:52:18;16.82;83.84
12907;DHT22;6521;50.498;8.474;2023-08-06T08:54:49;16.92;83.39
12907;DHT22;6521;50.498;8.474;2023-08-06T08:57:22;16.92;83.85
12907;DHT22;6521;50.498;8.474;2023-08-06T08:59:53;16.97;83.19
12907;DHT22;6521;50.498;8.474;2023-08-06T09:02:28;17.12;83.74
12907;DHT22;6521;50.498;8.474;2023-08-06T09:05:01;17.54;84.14
12907;DHT22;6521;50.498;8.474;2023-08-06T09:07:43;18.08;82.69
12907;DHT22;6521;50.498;8.474;2023-08-06T09:10:20;18.19;80.26
12907;DHT22;6521;50.498;8.474;2023-08-06T09:12:57;18.02;79.73
12907;DHT22;6521;50.498;8.474;2023-08-06T09:15:28;17.65;78.93
12907;DHT22;6521;50.498;8.474;2023-08-06T09:17:59;17.35;79.62
12907;DHT22;6521;50.498;8.474;2023-08-06T09:20:39;17.23;80.20
12907;DHT22;6521;50.498;8.474;2023-08-06T09:23:14;17.14;80.79
12907;DHT22;6521;50.498;8.474;2023-08-06T09:25:44;17.06;81.42
12907;DHT22;6521;50.498;8.474;2023-08-06T09:28:15;17.33;81.52
12907;DHT22;6521;50.498;8.474;2023-08-06T09:30:47;17.81;81.35
12907;DHT22;6521;50.498;8.474;2023-08-06T09:33:18;18.05;79.95
12907;DHT22;6521;50.498;8.474;2023-08-06T09:35:49;18.32;77.52
12907;DHT22;6521;50.498;8.474;2023-08-06T09:38:22;18.63;78.19
12907;DHT22;6521;50.498;8.474;2023-08-06T09:40:53;18.61;76.90
12907;DHT22;6521;50.498;8.474;2023-08-06T09:43:23;18.65;75.73
12907;DHT22;6521;50.498;8.474;2023-08-06T09:45:54;18.56;76.58
12907;DHT22;6521;50.498;8.474;2023-08-06T09:48:25;18.87;76.97
12907;DHT22;6521;50.498;8.474;2023-08-06T09:50:56;19.18;76.55
12907;DHT22;6521;50.498;8.474;2023-08-06T09:53:28;19.55;77.98
12907;DHT22;6521;50.498;8.474;2023-08-06T09:55:59;20.00;72.57
12907;DHT22;6521;50.498;8.474;2023-08-06T09:58:31;20.39;70.97
12907;DHT22;6521;50.498;8.474;2023-08-06T10:01:03;20.56;67.96
12907;DHT22;6521;50.498;8.474;2023-08-06T10:03:35;20.71;68.85
12907;DHT22;6521;50.498;8.474;2023-08-06T10:06:07;20.80;68.56
12907;DHT22;6521;50.498;8.474;2023-08-06T10:08:39;20.56;69.03
12907;DHT22;6521;50.498;8.474;2023-08-06T10:11:13;20.32;69.09
12907;DHT22;6521;50.498;8.474;2023-08-06T10:13:44;19.97;71.34
12907;DHT22;6521;50.498;8.474;2023-08-06T10:16:15;19.86;69.43
12907;DHT22;6521;50.498;8.474;2023-08-06T10:18:47;19.91;71.05
12907;DHT22;6521;50.498;8.474;2023-08-06T10:21:19;20.32;70.43
12907;DHT22;6521;50.498;8.474;2023-08-06T10:23:55;20.69;68.69
12907;DHT22;6521;50.498;8.474;2023-08-06T10:26:27;20.89;67.54
12907;DHT22;6521;50.498;8.474;2023-08-06T10:28:58;20.76;67.54
12907;DHT22;6521;50.498;8.474;2023-08-06T10:32:09;20.44;68.58
12907;DHT22;6521;50.498;8.474;2023-08-06T10:37:36;19.67;71.26
12907;DHT22;6521;50.498;8.474;2023-08-06T10:40:07;19.42;72.23
12907;DHT22;6521;50.498;8.474;2023-08-06T10:42:40;19.29;72.89
12907;DHT22;6521;50.498;8.474;2023-08-06T10:45:11;19.28;73.81
12907;DHT22;6521;50.498;8.474;2023-08-06T10:47:45;19.33;73.28
12907;DHT22;6521;50.498;8.474;2023-08-06T10:50:17;19.30;73.46
12907;DHT22;6521;50.498;8.474;2023-08-06T10:52:49;19.33;73.17
12907;DHT22;6521;50.498;8.474;2023-08-06T10:55:28;19.33;71.93
12907;DHT22;6521;50.498;8.474;2023-08-06T10:57:59;19.05;71.78
12907;DHT22;6521;50.498;8.474;2023-08-06T11:00:30;18.84;72.04
12907;DHT22;6521;50.498;8.474;2023-08-06T11:03:03;18.65;73.17
12907;DHT22;6521;50.498;8.474;2023-08-06T11:05:35;18.47;75.43
12907;DHT22;6521;50.498;8.474;2023-08-06T11:08:06;18.34;77.63
12907;DHT22;6521;50.498;8.474;2023-08-06T11:10:36;18.23;77.29
12907;DHT22;6521;50.498;8.474;2023-08-06T11:13:07;18.17;79.21
12907;DHT22;6521;50.498;8.474;2023-08-06T11:15:39;18.29;79.30
12907;DHT22;6521;50.498;8.474;2023-08-06T11:18:10;18.36;78.76
12907;DHT22;6521;50.498;8.474;2023-08-06T11:20:40;18.74;80.34
12907;DHT22;6521;50.498;8.474;2023-08-06T11:23:11;19.46;75.36
12907;DHT22;6521;50.498;8.474;2023-08-06T11:25:45;20.24;74.24
12907;DHT22;6521;50.498;8.474;2023-08-06T11:28:19;20.86;70.39
12907;DHT22;6521;50.498;8.474;2023-08-06T11:30:52;21.06;71.49
12907;DHT22;6521;50.498;8.474;2023-08-06T11:33:24;20.96;69.04
12907;DHT22;6521;50.498;8.474;2023-08-06T11:35:59;20.48;69.76
12907;DHT22;6521;50.498;8.474;2023-08-06T11:38:30;20.07;71.01
12907;DHT22;6521;50.498;8.474;2023-08-06T11:41:01;19.84;71.89
12907;DHT22;6521;50.498;8.474;2023-08-06T11:43:31;19.66;71.32
12907;DHT22;6521;50.498;8.474;2023-08-06T11:46:03;19.39;71.84
12907;DHT22;6521;50.498;8.474;2023-08-06T11:48:50;18.87;73.04
12907;DHT22;6521;50.498;8.474;2023-08-06T11:51:27;18.29;75.33
12907;DHT22;6521;50.498;8.474;2023-08-06T11:53:58;17.60;77.42
12907;DHT22;6521;50.498;8.474;2023-08-06T11:56:29;17.00;79.73
12907;DHT22;6521;50.498;8.474;2023-08-06T11:59:00;16.52;82.36
12907;DHT22;6521;50.498;8.474;2023-08-06T12:01:31;16.21;83.90
12907;DHT22;6521;50.498;8.474;2023-08-06T12:04:04;15.86;85.01
12907;DHT22;6521;50.498;8.474;2023-08-06T12:06:42;15.60;86.27
12907;DHT22;6521;50.498;8.474;2023-08-06T12:09:13;15.48;85.96
12907;DHT22;6521;50.498;8.474;2023-08-06T12:11:46;15.25;86.21
12907;DHT22;6521;50.498;8.474;2023-08-06T12:14:17;15.14;86.91
12907;DHT22;6521;50.498;8.474;2023-08-06T12:16:48;15.02;87.37
12907;DHT22;6521;50.498;8.474;2023-08-06T12:19:21;14.91;87.77
12907;DHT22;6521;50.498;8.474;2023-08-06T12:21:54;14.88;87.84
12907;DHT22;6521;50.498;8.474;2023-08-06T12:24:25;14.77;87.55
12907;DHT22;6521;50.498;8.474;2023-08-06T12:26:56;14.74;88.14
12907;DHT22;6521;50.498;8.474;2023-08-06T12:29:28;14.63;87.62
12907;DHT22;6521;50.498;8.474;2023-08-06T12:31:59;14.56;87.83
12907;DHT22;6521;50.498;8.474;2023-08-06T12:34:30;14.49;87.65
12907;DHT22;6521;50.498;8.474;2023-08-06T12:37:02;14.46;87.83
12907;DHT22;6521;50.498;8.474;2023-08-06T12:39:34;14.36;87.76
12907;DHT22;6521;50.498;8.474;2023-08-06T12:42:05;14.33;88.16
12907;DHT22;6521;50.498;8.474;2023-08-06T12:44:36;14.36;88.15
12907;DHT22;6521;50.498;8.474;2023-08-06T12:47:07;14.33;87.44
12907;DHT22;6521;50.498;8.474;2023-08-06T12:49:38;14.26;87.14
12907;DHT22;6521;50.498;8.474;2023-08-06T12:52:09;14.25;88.18
12907;DHT22;6521;50.498;8.474;2023-08-06T12:54:40;14.23;88.29
12907;DHT22;6521;50.498;8.474;2023-08-06T12:57:11;14.20;88.13
12907;DHT22;6521;50.498;8.474;2023-08-06T12:59:41;14.09;88.25
12907;DHT22;6521;50.498;8.474;2023-08-06T13:02:12;14.06;88.49
12907;DHT22;6521;50.498;8.474;2023-08-06T13:04:45;14.02;88.29
12907;DHT22;6521;50.498;8.474;2023-08-06T13:07:16;14.04;88.38
12907;DHT22;6521;50.498;8.474;2023-08-06T13:09:47;13.98;88.76
12907;DHT22;6521;50.498;8.474;2023-08-06T13:12:18;13.99;88.45
12907;DHT22;6521;50.498;8.474;2023-08-06T13:14:50;14.01;88.55
12907;DHT22;6521;50.498;8.474;2023-08-06T13:17:23;13.97;88.36
12907;DHT22;6521;50.498;8.474;2023-08-06T13:19:56;13.94;88.15
12907;DHT22;6521;50.498;8.474;2023-08-06T13:22:27;13.94;88.42
12907;DHT22;6521;50.498;8.474;2023-08-06T13:24:58;13.89;87.96
12907;DHT22;6521;50.498;8.474;2023-08-06T13:27:29;13.88;88.49
12907;DHT22;6521;50.498;8.474;2023-08-06T13:29:59;13.88;88.27
12907;DHT22;6521;50.498;8.474;2023-08-06T13:32:30;13.86;88.56
12907;DHT22;6521;50.498;8.474;2023-08-06T13:35:04;13.91;88.45
12907;DHT22;6521;50.498;8.474;2023-08-06T13:37:35;13.94;88.77
12907;DHT22;6521;50.498;8.474;2023-08-06T13:40:07;13.98;88.90
12907;DHT22;6521;50.498;8.474;2023-08-06T13:42:39;14.02;88.77
12907;DHT22;6521;50.498;8.474;2023-08-06T13:45:10;14.11;89.18
12907;DHT22;6521;50.498;8.474;2023-08-06T13:47:41;14.13;88.98
12907;DHT22;6521;50.498;8.474;2023-08-06T13:50:12;14.23;89.26
12907;DHT22;6521;50.498;8.474;2023-08-06T13:52:44;14.30;89.22
12907;DHT22;6521;50.498;8.474;2023-08-06T13:55:15;14.33;88.58
12907;DHT22;6521;50.498;8.474;2023-08-06T13:57:46;14.30;88.38
12907;DHT22;6521;50.498;8.474;2023-08-06T14:00:17;14.33;88.09
12907;DHT22;6521;50.498;8.474;2023-08-06T14:02:50;14.28;88.51
12907;DHT22;6521;50.498;8.474;2023-08-06T14:05:22;14.23;88.33
12907;DHT22;6521;50.498;8.474;2023-08-06T14:07:53;14.23;88.59
12907;DHT22;6521;50.498;8.474;2023-08-06T14:10:24;14.28;88.64
12907;DHT22;6521;50.498;8.474;2023-08-06T14:13:03;14.25;88.51
12907;DHT22;6521;50.498;8.474;2023-08-06T14:15:35;14.33;89.14
12907;DHT22;6521;50.498;8.474;2023-08-06T14:18:07;14.37;88.84
12907;DHT22;6521;50.498;8.474;2023-08-06T14:20:39;14.40;87.98
12907;DHT22;6521;50.498;8.474;2023-08-06T14:23:09;14.37;88.10
12907;DHT22;6521;50.498;8.474;2023-08-06T14:25:40;14.43;87.65
12907;DHT22;6521;50.498;8.474;2023-08-06T14:28:11;14.46;87.35
12907;DHT22;6521;50.498;8.474;2023-08-06T14:30:42;14.53;86.49
12907;DHT22;6521;50.498;8.474;2023-08-06T14:33:14;14.50;87.10
12907;DHT22;6521;50.498;8.474;2023-08-06T14:35:44;14.53;87.17
12907;DHT22;6521;50.498;8.474;2023-08-06T14:38:15;14.47;86.43
12907;DHT22;6521;50.498;8.474;2023-08-06T14:40:46;14.44;86.44
12907;DHT22;6521;50.498;8.474;2023-08-06T14:43:17;14.40;86.65
12907;DHT22;6521;50.498;8.474;2023-08-06T14:45:48;14.49;87.73
12907;DHT22;6521;50.498;8.474;2023-08-06T14:48:18;14.49;87.43
12907;DHT22;6521;50.498;8.474;2023-08-06T14:50:49;14.51;86.56
12907;DHT22;6521;50.498;8.474;2023-08-06T14:53:22;14.56;85.99
12907;DHT22;6521;50.498;8.474;2023-08-06T14:55:52;14.55;85.87
12907;DHT22;6521;50.498;8.474;2023-08-06T14:58:24;14.53;86.40
12907;DHT22;6521;50.498;8.474;2023-08-06T15:00:56;14.53;86.77
12907;DHT22;6521;50.498;8.474;2023-08-06T15:03:28;14.50;86.61
12907;DHT22;6521;50.498;8.474;2023-08-06T15:05:59;14.49;87.26
12907;DHT22;6521;50.498;8.474;2023-08-06T15:08:33;14.49;87.40
12907;DHT22;6521;50.498;8.474;2023-08-06T15:11:05;14.44;87.20
12907;DHT22;6521;50.498;8.474;2023-08-06T15:13:35;14.34;87.76
12907;DHT22;6521;50.498;8.474;2023-08-06T15:16:09;14.39;87.87
12907;DHT22;6521;50.498;8.474;2023-08-06T15:18:40;14.37;88.15
12907;DHT22;6521;50.498;8.474;2023-08-06T15:21:13;14.34;87.92
12907;DHT22;6521;50.498;8.474;2023-08-06T15:23:46;14.28;87.88
12907;DHT22;6521;50.498;8.474;2023-08-06T15:26:16;14.23;88.11
12907;DHT22;6521;50.498;8.474;2023-08-06T15:28:47;14.18;88.34
12907;DHT22;6521;50.498;8.474;2023-08-06T15:31:20;14.08;88.47
12907;DHT22;6521;50.498;8.474;2023-08-06T15:33:54;13.98;89.14
12907;DHT22;6521;50.498;8.474;2023-08-06T15:36:25;13.92;89.44
12907;DHT22;6521;50.498;8.474;2023-08-06T15:38:56;13.89;89.43
12907;DHT22;6521;50.498;8.474;2023-08-06T15:41:27;13.88;89.80
12907;DHT22;6521;50.498;8.474;2023-08-06T15:43:57;13.83;89.89
12907;DHT22;6521;50.498;8.474;2023-08-06T15:46:28;13.82;90.00
12907;DHT22;6521;50.498;8.474;2023-08-06T15:49:02;13.81;89.95
12907;DHT22;6521;50.498;8.474;2023-08-06T15:51:33;13.83;90.35
12907;DHT22;6521;50.498;8.474;2023-08-06T15:54:04;13.83;89.90
12907;DHT22;6521;50.498;8.474;2023-08-06T15:56:38;13.83;89.88
12907;DHT22;6521;50.498;8.474;2023-08-06T16:01:52;13.82;89.92
12907;DHT22;6521;50.498;8.474;2023-08-06T16:04:23;13.81;89.57
12907;DHT22;6521;50.498;8.474;2023-08-06T16:06:56;13.82;89.51
12907;DHT22;6521;50.498;8.474;2023-08-06T16:09:27;13.74;89.77
12907;DHT22;6521;50.498;8.474;2023-08-06T16:11:57;13.68;90.11
12907;DHT22;6521;50.498;8.474;2023-08-06T16:14:28;13.70;90.29
12907;DHT22;6521;50.498;8.474;2023-08-06T16:16:59;13.72;90.07
12907;DHT22;6521;50.498;8.474;2023-08-06T16:19:29;13.70;89.95
12907;DHT22;6521;50.498;8.474;2023-08-06T16:22:00;13.68;89.87
12907;DHT22;6521;50.498;8.474;2023-08-06T16:24:31;13.70;90.26